createdAt,value
2023-05-29T00:00:43.608Z,69.90
2023-05-29T00:03:14.184Z,70.20
2023-05-29T00:05:41.968Z,70.20
2023-05-29T00:08:08.928Z,70.50
2023-05-29T00:10:38.362Z,70.40
2023-05-29T00:13:08.326Z,70.70
2023-05-29T00:15:37.852Z,70.50
2023-05-29T00:18:07.842Z,70.90
2023-05-29T00:20:37.245Z,71.00
2023-05-29T00:23:07.888Z,71.10
2023-05-29T00:25:34.901Z,71.20
2023-05-29T00:28:01.938Z,71.10
2023-05-29T00:30:31.964Z,71.10
2023-05-29T00:32:59.104Z,71.80
2023-05-29T00:35:26.197Z,71.60
2023-05-29T00:37:55.983Z,71.70
2023-05-29T00:40:27.791Z,72.10
2023-05-29T00:42:59.417Z,72.10
2023-05-29T00:45:27.529Z,72.40
2023-05-29T00:47:57.070Z,72.60
2023-05-29T00:50:24.919Z,72.80
2023-05-29T00:52:54.197Z,72.70
2023-05-29T00:55:21.273Z,72.60
2023-05-29T00:57:53.954Z,72.90
2023-05-29T01:00:25.512Z,72.90
2023-05-29T01:02:59.761Z,73.00
2023-05-29T01:05:26.805Z,73.40
2023-05-29T01:07:56.143Z,73.30
2023-05-29T01:10:23.108Z,73.70
2023-05-29T01:13:05.289Z,73.70
2023-05-29T01:16:11.042Z,73.70
2023-05-29T01:19:06.347Z,74.00
2023-05-29T01:22:04.657Z,74.30
2023-05-29T01:24:39.918Z,74.40
2023-05-29T01:27:13.460Z,74.80
2023-05-29T01:29:41.767Z,75.00
2023-05-29T01:32:10.853Z,74.80
2023-05-29T01:34:41.019Z,74.80
2023-05-29T01:37:10.137Z,75.00
2023-05-29T01:39:42.217Z,75.50
2023-05-29T01:42:11.775Z,75.60
2023-05-29T01:44:41.219Z,75.80
2023-05-29T01:47:12.638Z,75.50
2023-05-29T01:49:42.566Z,75.90
2023-05-29T01:52:09.552Z,76.20
2023-05-29T01:54:36.584Z,76.20
2023-05-29T01:57:03.732Z,76.00
2023-05-29T01:59:34.439Z,76.20
2023-05-29T02:02:11.272Z,76.20
2023-05-29T02:04:40.619Z,76.10
2023-05-29T02:07:09.804Z,76.40
2023-05-29T02:09:39.046Z,76.20
2023-05-29T02:12:07.139Z,76.50
2023-05-29T02:14:34.476Z,76.60
2023-05-29T02:17:04.177Z,76.70
2023-05-29T02:19:33.560Z,76.40
2023-05-29T02:22:01.401Z,76.90
2023-05-29T02:24:32.197Z,77.20
2023-05-29T02:27:02.120Z,77.10
2023-05-29T02:29:31.596Z,77.10
2023-05-29T02:32:01.320Z,76.90
2023-05-29T02:34:28.411Z,77.10
2023-05-29T02:36:57.859Z,77.20
2023-05-29T02:39:24.909Z,76.80
2023-05-29T02:41:55.086Z,77.20
2023-05-29T02:44:24.182Z,77.50
2023-05-29T02:46:53.379Z,77.30
2023-05-29T02:49:20.892Z,77.30
2023-05-29T02:51:54.514Z,77.60
2023-05-29T02:54:21.468Z,77.30
2023-05-29T02:56:51.355Z,77.60
2023-05-29T02:59:25.792Z,77.90
2023-05-29T03:01:55.866Z,77.70
2023-05-29T03:04:29.894Z,77.70
2023-05-29T03:07:01.656Z,77.90
2023-05-29T03:09:32.150Z,77.40
2023-05-29T03:11:59.218Z,77.60
2023-05-29T03:14:29.329Z,77.80
2023-05-29T03:17:01.405Z,77.50
2023-05-29T03:19:33.143Z,77.80
2023-05-29T03:22:00.177Z,77.60
2023-05-29T03:24:36.049Z,78.00
2023-05-29T03:27:06.035Z,78.00
2023-05-29T03:29:37.030Z,77.80
2023-05-29T03:32:04.869Z,77.80
2023-05-29T03:34:37.256Z,77.80
2023-05-29T03:37:07.327Z,77.60
2023-05-29T03:39:36.705Z,77.80
2023-05-29T03:42:05.660Z,77.60
2023-05-29T03:44:35.270Z,77.60
2023-05-29T03:47:02.330Z,77.80
2023-05-29T03:49:35.770Z,77.90
2023-05-29T03:52:03.892Z,77.70
2023-05-29T03:54:38.572Z,77.50
2023-05-29T03:57:07.914Z,77.10
2023-05-29T03:59:37.953Z,77.10
2023-05-29T04:02:05.937Z,76.60
2023-05-29T04:04:33.149Z,77.00
2023-05-29T04:07:02.447Z,76.90
2023-05-29T04:09:29.462Z,76.90
2023-05-29T04:12:03.338Z,76.80
2023-05-29T04:14:32.501Z,76.80
2023-05-29T04:16:59.529Z,76.40
2023-05-29T04:19:26.552Z,76.00
2023-05-29T04:21:54.308Z,75.90
2023-05-29T04:24:23.535Z,75.60
2023-05-29T04:26:53.678Z,75.30
2023-05-29T04:29:23.736Z,74.80
2023-05-29T04:31:53.579Z,74.60
2023-05-29T04:34:25.665Z,74.40
2023-05-29T04:36:54.712Z,74.10
2023-05-29T04:39:23.369Z,74.10
2023-05-29T04:41:53.086Z,73.90
2023-05-29T04:44:26.847Z,73.80
2023-05-29T04:46:55.826Z,73.40
2023-05-29T04:49:22.955Z,73.40
2023-05-29T04:51:53.628Z,73.00
2023-05-29T04:54:24.692Z,72.80
2023-05-29T04:56:54.925Z,72.70
2023-05-29T04:59:27.825Z,72.70
2023-05-29T05:01:55.092Z,72.30
2023-05-29T05:04:24.451Z,72.00
2023-05-29T05:06:52.504Z,71.70
2023-05-29T05:09:19.561Z,72.10
2023-05-29T05:11:46.846Z,71.90
2023-05-29T05:14:13.984Z,71.80
2023-05-29T05:16:45.821Z,71.30
2023-05-29T05:19:17.382Z,71.40
2023-05-29T05:21:45.171Z,71.20
2023-05-29T05:24:13.642Z,70.90
2023-05-29T05:26:41.966Z,70.30
2023-05-29T05:29:09.099Z,70.00
2023-05-29T05:31:45.553Z,69.70
2023-05-29T05:34:14.811Z,69.80
2023-05-29T05:36:44.935Z,69.70
2023-05-29T05:39:19.703Z,69.00
2023-05-29T05:41:49.217Z,68.80
2023-05-29T05:44:27.150Z,69.00
2023-05-29T05:47:00.244Z,69.00
2023-05-29T05:49:30.434Z,69.30
2023-05-29T05:51:57.433Z,69.60
2023-05-29T05:54:27.021Z,69.50
2023-05-29T05:56:54.015Z,69.00
2023-05-29T05:59:23.971Z,68.60
2023-05-29T06:01:51.720Z,69.40
2023-05-29T06:04:21.912Z,69.10
2023-05-29T06:06:48.938Z,68.40
2023-05-29T06:09:15.979Z,68.30
2023-05-29T06:11:46.131Z,68.50
2023-05-29T06:14:15.639Z,68.20
2023-05-29T06:16:46.825Z,67.30
2023-05-29T06:19:15.959Z,66.70
2023-05-29T06:21:56.819Z,66.70
2023-05-29T06:24:23.832Z,65.30
2023-05-29T06:26:53.308Z,65.20
2023-05-29T06:29:22.524Z,64.80
2023-05-29T06:31:50.047Z,64.70
2023-05-29T06:34:17.074Z,64.40
2023-05-29T06:36:44.345Z,64.10
2023-05-29T06:39:12.416Z,63.60
2023-05-29T06:41:39.402Z,64.10
2023-05-29T06:44:11.885Z,63.90
2023-05-29T06:46:41.436Z,64.30
2023-05-29T06:49:08.623Z,64.20
2023-05-29T06:51:38.099Z,65.00
2023-05-29T06:54:31.245Z,65.00
2023-05-29T06:57:09.613Z,64.20
2023-05-29T06:59:41.724Z,64.20
2023-05-29T07:02:09.526Z,64.70
2023-05-29T07:04:38.715Z,63.70
2023-05-29T07:07:06.177Z,63.80
2023-05-29T07:09:37.680Z,64.00
2023-05-29T07:12:07.365Z,63.30
2023-05-29T07:14:35.349Z,63.90
2023-05-29T07:17:05.051Z,63.10
2023-05-29T07:19:33.552Z,62.20
2023-05-29T07:22:06.216Z,62.80
2023-05-29T07:24:33.330Z,62.30
2023-05-29T07:27:06.769Z,62.70
2023-05-29T07:29:36.399Z,62.10
2023-05-29T07:32:04.374Z,62.70
2023-05-29T07:34:33.938Z,61.80
2023-05-29T07:37:07.927Z,62.50
2023-05-29T07:39:39.919Z,61.70
2023-05-29T07:42:26.833Z,61.90
2023-05-29T07:44:56.076Z,61.90
2023-05-29T07:47:25.111Z,61.60
2023-05-29T07:49:54.558Z,61.20
2023-05-29T07:52:25.542Z,61.10
2023-05-29T07:54:54.130Z,61.90
2023-05-29T07:57:26.314Z,61.30
2023-05-29T07:59:55.394Z,61.00
2023-05-29T08:02:26.093Z,61.00
2023-05-29T08:05:10.555Z,60.60
2023-05-29T08:07:38.221Z,60.80
2023-05-29T08:10:06.747Z,61.80
2023-05-29T08:12:35.609Z,60.90
2023-05-29T08:15:06.080Z,60.80
2023-05-29T08:17:33.229Z,60.70
2023-05-29T08:20:00.502Z,60.20
2023-05-29T08:22:31.103Z,59.40
2023-05-29T08:24:58.155Z,59.60
2023-05-29T08:27:25.134Z,60.00
2023-05-29T08:29:52.202Z,59.70
2023-05-29T08:32:21.397Z,60.10
2023-05-29T08:34:52.928Z,60.40
2023-05-29T08:37:20.720Z,59.50
2023-05-29T08:39:49.935Z,59.40
2023-05-29T08:42:23.461Z,59.30
2023-05-29T08:44:50.983Z,58.90
2023-05-29T08:47:21.890Z,58.40
2023-05-29T08:49:55.925Z,59.20
2023-05-29T08:52:29.039Z,58.40
2023-05-29T08:54:59.516Z,58.90
2023-05-29T08:57:28.668Z,58.20
2023-05-29T08:59:58.193Z,58.00
2023-05-29T09:02:25.210Z,57.60
2023-05-29T09:04:55.641Z,57.40
2023-05-29T09:07:27.036Z,57.50
2023-05-29T09:09:56.622Z,58.30
2023-05-29T09:12:28.139Z,57.60
2023-05-29T09:14:57.327Z,56.60
2023-05-29T09:17:24.295Z,56.90
2023-05-29T09:19:55.748Z,56.60
2023-05-29T09:22:22.787Z,55.30
2023-05-29T09:24:49.869Z,55.40
2023-05-29T09:27:19.462Z,55.40
2023-05-29T09:29:49.182Z,55.20
2023-05-29T09:32:20.492Z,56.10
2023-05-29T09:34:47.540Z,55.30
2023-05-29T09:37:16.192Z,57.10
2023-05-29T09:39:49.215Z,54.80
2023-05-29T09:42:18.684Z,54.40
2023-05-29T09:44:52.977Z,54.70
2023-05-29T09:47:20.279Z,54.90
2023-05-29T09:49:49.988Z,54.80
2023-05-29T09:52:17.344Z,54.30
2023-05-29T09:54:46.552Z,54.70
2023-05-29T09:57:17.963Z,54.50
2023-05-29T09:59:52.429Z,54.50
2023-05-29T10:02:19.604Z,54.30
2023-05-29T10:04:46.717Z,54.50
2023-05-29T10:07:28.863Z,52.80
2023-05-29T10:10:04.578Z,52.90
2023-05-29T10:12:45.842Z,52.10
2023-05-29T10:15:14.359Z,53.10
2023-05-29T10:18:05.549Z,53.70
2023-05-29T10:20:33.199Z,52.00
2023-05-29T10:23:01.626Z,51.90
2023-05-29T10:25:36.155Z,52.00
2023-05-29T10:28:05.640Z,51.70
2023-05-29T10:30:44.940Z,52.50
2023-05-29T10:33:20.150Z,53.00
2023-05-29T10:35:59.504Z,51.20
2023-05-29T10:38:28.998Z,50.70
2023-05-29T10:41:00.336Z,51.60
2023-05-29T10:43:34.629Z,52.30
2023-05-29T10:46:02.672Z,52.30
2023-05-29T10:48:39.876Z,52.70
2023-05-29T10:51:09.438Z,51.50
2023-05-29T10:53:41.758Z,51.40
2023-05-29T10:56:16.874Z,51.40
2023-05-29T10:58:43.889Z,52.10
2023-05-29T11:01:10.947Z,52.20
2023-05-29T11:03:38.001Z,52.00
2023-05-29T11:06:17.740Z,53.20
2023-05-29T11:08:48.909Z,52.60
2023-05-29T11:11:34.187Z,50.90
2023-05-29T11:14:07.284Z,51.80
2023-05-29T11:16:38.241Z,52.70
2023-05-29T11:19:11.937Z,52.20
2023-05-29T11:21:58.741Z,52.40
2023-05-29T11:24:37.756Z,53.00
2023-05-29T11:27:07.687Z,52.20
2023-05-29T11:29:36.943Z,50.80
2023-05-29T11:32:11.895Z,52.10
2023-05-29T11:34:45.317Z,50.60
2023-05-29T11:37:14.560Z,51.00
2023-05-29T11:39:44.166Z,51.50
2023-05-29T11:42:13.336Z,51.10
2023-05-29T11:44:40.359Z,51.60
2023-05-29T11:47:10.788Z,50.50
2023-05-29T11:49:38.540Z,50.70
2023-05-29T11:54:48.019Z,51.10
2023-05-29T11:57:26.736Z,50.50
2023-05-29T11:59:59.569Z,50.90
2023-05-29T12:02:32.411Z,51.50
2023-05-29T12:05:06.779Z,51.80
2023-05-29T12:07:40.453Z,51.50
2023-05-29T12:10:11.940Z,51.40
2023-05-29T12:12:41.877Z,52.70
2023-05-29T12:15:12.086Z,52.50
2023-05-29T12:17:39.159Z,52.60
2023-05-29T12:20:10.428Z,52.20
2023-05-29T12:22:38.858Z,53.00
2023-05-29T12:25:14.467Z,53.20
2023-05-29T12:27:47.443Z,52.80
2023-05-29T12:30:31.443Z,52.30
2023-05-29T12:33:04.037Z,53.30
2023-05-29T12:35:33.857Z,52.60
2023-05-29T12:38:09.776Z,52.50
2023-05-29T12:40:39.713Z,52.50
2023-05-29T12:43:11.994Z,52.70
2023-05-29T12:45:41.562Z,52.20
2023-05-29T12:48:13.236Z,52.10
2023-05-29T12:50:42.897Z,52.80
2023-05-29T12:53:11.051Z,52.80
2023-05-29T12:55:39.869Z,51.30
2023-05-29T12:58:10.142Z,52.10
2023-05-29T13:00:41.995Z,52.30
2023-05-29T13:03:09.406Z,51.90
2023-05-29T13:05:36.784Z,52.70
2023-05-29T13:08:07.298Z,52.40
2023-05-29T13:10:38.393Z,52.50
2023-05-29T13:13:07.755Z,53.30
2023-05-29T13:15:41.435Z,53.60
2023-05-29T13:18:10.565Z,54.40
2023-05-29T13:20:37.676Z,54.90
2023-05-29T13:23:06.948Z,54.10
2023-05-29T13:25:34.010Z,54.00
2023-05-29T13:28:03.152Z,54.70
2023-05-29T13:30:30.239Z,53.90
2023-05-29T13:32:57.251Z,55.60
2023-05-29T13:35:31.370Z,54.30
2023-05-29T13:38:02.720Z,54.50
2023-05-29T13:40:29.948Z,54.80
2023-05-29T13:42:59.559Z,55.00
2023-05-29T13:45:29.009Z,54.70
2023-05-29T13:47:58.277Z,54.10
2023-05-29T13:50:25.625Z,54.40
2023-05-29T13:52:54.699Z,54.80
2023-05-29T13:55:21.718Z,55.00
2023-05-29T13:57:48.884Z,55.00
2023-05-29T14:00:18.658Z,55.40
2023-05-29T14:02:51.197Z,55.60
2023-05-29T14:05:23.575Z,55.00
2023-05-29T14:07:50.556Z,54.70
2023-05-29T14:10:17.597Z,55.30
2023-05-29T14:12:44.636Z,56.10
2023-05-29T14:15:13.820Z,55.00
2023-05-29T14:17:40.907Z,55.70
2023-05-29T14:20:09.910Z,55.10
2023-05-29T14:22:39.246Z,54.60
2023-05-29T14:25:06.613Z,54.10
2023-05-29T14:27:33.660Z,54.90
2023-05-29T14:30:03.718Z,55.00
2023-05-29T14:32:32.789Z,54.80
2023-05-29T14:35:02.437Z,54.90
2023-05-29T14:37:29.438Z,55.30
2023-05-29T14:39:58.524Z,55.80
2023-05-29T14:42:25.656Z,55.80
2023-05-29T14:44:52.611Z,55.10
2023-05-29T14:47:21.856Z,55.10
2023-05-29T14:49:55.773Z,56.20
2023-05-29T14:52:22.731Z,56.70
2023-05-29T14:54:51.970Z,56.40
2023-05-29T14:57:21.161Z,56.40
2023-05-29T14:59:54.964Z,56.20
2023-05-29T15:02:21.975Z,56.20
2023-05-29T15:04:51.440Z,56.60
2023-05-29T15:07:20.798Z,56.00
2023-05-29T15:09:50.019Z,56.20
2023-05-29T15:12:19.125Z,55.50
2023-05-29T15:14:46.091Z,55.90
2023-05-29T15:17:13.239Z,56.40
2023-05-29T15:19:40.286Z,55.90
2023-05-29T15:22:07.261Z,56.00
2023-05-29T15:24:38.726Z,56.70
2023-05-29T15:27:06.201Z,57.20
2023-05-29T15:29:36.876Z,57.40
2023-05-29T15:32:06.520Z,56.60
2023-05-29T15:34:37.238Z,56.40
2023-05-29T15:37:09.108Z,56.90
2023-05-29T15:39:36.120Z,57.50
2023-05-29T15:42:03.162Z,56.80
2023-05-29T15:44:32.583Z,57.20
2023-05-29T15:47:04.866Z,57.10
2023-05-29T15:49:36.847Z,57.50
2023-05-29T15:52:04.024Z,57.80
2023-05-29T15:54:33.230Z,58.60
2023-05-29T15:57:03.619Z,58.60
2023-05-29T15:59:33.172Z,57.80
2023-05-29T16:02:05.839Z,57.70
2023-05-29T16:04:33.030Z,57.30
2023-05-29T16:07:03.280Z,57.40
2023-05-29T16:09:30.256Z,58.20
2023-05-29T16:11:59.422Z,57.60
2023-05-29T16:14:28.833Z,57.00
2023-05-29T16:16:55.870Z,57.00
2023-05-29T16:19:22.875Z,57.10
2023-05-29T16:21:49.861Z,58.10
2023-05-29T16:24:20.031Z,57.90
2023-05-29T16:26:47.023Z,57.40
2023-05-29T16:29:13.961Z,58.00
2023-05-29T16:31:43.517Z,57.50
2023-05-29T16:34:15.199Z,58.10
2023-05-29T16:36:44.677Z,59.10
2023-05-29T16:39:12.080Z,59.20
2023-05-29T16:41:41.643Z,59.40
2023-05-29T16:44:10.789Z,59.00
2023-05-29T16:46:37.756Z,58.70
2023-05-29T16:49:07.870Z,58.00
2023-05-29T16:51:37.523Z,58.00
2023-05-29T16:54:06.985Z,58.30
2023-05-29T16:56:38.651Z,58.30
2023-05-29T16:59:08.000Z,58.40
2023-05-29T17:01:37.508Z,58.00
2023-05-29T17:04:04.650Z,58.00
2023-05-29T17:06:31.653Z,58.20
2023-05-29T17:08:58.645Z,57.90
2023-05-29T17:11:28.323Z,57.10
2023-05-29T17:13:55.532Z,58.70
2023-05-29T17:16:24.904Z,57.90
2023-05-29T17:18:51.927Z,57.10
2023-05-29T17:21:23.948Z,56.20
2023-05-29T17:23:56.063Z,56.80
2023-05-29T17:26:26.258Z,56.40
2023-05-29T17:28:53.233Z,56.10
2023-05-29T17:31:24.566Z,56.40
2023-05-29T17:33:51.648Z,56.90
2023-05-29T17:36:18.612Z,58.20
2023-05-29T17:38:45.725Z,58.30
2023-05-29T17:41:12.805Z,57.20
2023-05-29T17:43:39.753Z,57.90
2023-05-29T17:46:06.733Z,57.10
2023-05-29T17:48:35.851Z,58.30
2023-05-29T17:51:02.897Z,57.40
2023-05-29T17:53:32.234Z,58.00
2023-05-29T17:55:59.292Z,58.60
2023-05-29T17:58:31.276Z,59.20
2023-05-29T18:01:02.964Z,59.00
2023-05-29T18:03:32.460Z,58.50
2023-05-29T18:05:59.456Z,59.00
2023-05-29T18:08:26.486Z,59.60
2023-05-29T18:10:53.460Z,59.00
2023-05-29T18:13:20.429Z,59.80
2023-05-29T18:15:48.176Z,58.90
2023-05-29T18:18:15.456Z,59.40
2023-05-29T18:20:47.189Z,59.70
2023-05-29T18:23:18.803Z,59.30
2023-05-29T18:25:45.836Z,59.80
2023-05-29T18:28:15.045Z,59.90
2023-05-29T18:30:42.084Z,60.00
2023-05-29T18:33:09.263Z,60.10
2023-05-29T18:35:36.552Z,59.80
2023-05-29T18:38:03.531Z,60.40
2023-05-29T18:40:33.466Z,60.70
2023-05-29T18:43:00.736Z,61.30
2023-05-29T18:45:29.995Z,61.60
2023-05-29T18:48:01.583Z,61.60
2023-05-29T18:50:31.094Z,62.20
2023-05-29T18:53:01.051Z,62.20
2023-05-29T18:55:30.235Z,62.80
2023-05-29T18:57:59.480Z,62.50
2023-05-29T19:00:28.813Z,62.30
2023-05-29T19:02:56.023Z,62.50
2023-05-29T19:05:25.539Z,62.50
2023-05-29T19:07:52.641Z,62.80
2023-05-29T19:10:21.977Z,63.20
2023-05-29T19:12:53.731Z,63.10
2023-05-29T19:15:23.151Z,63.50
2023-05-29T19:17:52.268Z,64.00
2023-05-29T19:20:21.770Z,64.20
2023-05-29T19:22:52.718Z,64.60
2023-05-29T19:25:21.990Z,64.80
2023-05-29T19:27:54.200Z,65.20
2023-05-29T19:30:22.150Z,65.40
2023-05-29T19:32:49.226Z,65.20
2023-05-29T19:35:18.516Z,65.50
2023-05-29T19:37:50.776Z,65.60
2023-05-29T19:40:20.030Z,65.50
2023-05-29T19:42:49.378Z,65.50
2023-05-29T19:45:18.346Z,65.40
2023-05-29T19:47:52.258Z,64.80
2023-05-29T19:50:22.714Z,64.30
2023-05-29T19:52:56.852Z,63.60
2023-05-29T19:55:24.001Z,63.10
2023-05-29T19:57:55.638Z,63.00
2023-05-29T20:00:22.701Z,61.90
2023-05-29T20:02:52.828Z,61.80
2023-05-29T20:05:22.068Z,61.20
2023-05-29T20:07:49.021Z,61.50
2023-05-29T20:10:18.536Z,61.50
2023-05-29T20:12:49.762Z,62.00
2023-05-29T20:15:21.747Z,61.60
2023-05-29T20:17:48.866Z,61.90
2023-05-29T20:20:17.073Z,61.30
2023-05-29T20:22:47.227Z,60.70
2023-05-29T20:25:17.537Z,60.40
2023-05-29T20:27:47.652Z,60.80
2023-05-29T20:30:17.300Z,60.00
2023-05-29T20:32:46.753Z,60.00
2023-05-29T20:35:21.791Z,60.00
2023-05-29T20:37:53.231Z,59.70
2023-05-29T20:40:25.052Z,60.40
2023-05-29T20:42:52.303Z,60.10
2023-05-29T20:45:22.444Z,60.40
2023-05-29T20:47:51.877Z,60.50
2023-05-29T20:50:23.588Z,60.70
2023-05-29T20:52:50.615Z,61.60
2023-05-29T20:55:17.639Z,62.10
2023-05-29T20:57:44.715Z,62.20
2023-05-29T21:00:18.458Z,62.90
2023-05-29T21:02:47.983Z,63.30
2023-05-29T21:05:15.252Z,63.60
2023-05-29T21:07:47.026Z,63.90
2023-05-29T21:10:14.137Z,64.10
2023-05-29T21:12:41.305Z,64.40
2023-05-29T21:15:09.070Z,64.50
2023-05-29T21:17:38.220Z,64.70
2023-05-29T21:20:10.654Z,65.00
2023-05-29T21:22:40.089Z,65.00
2023-05-29T21:25:08.084Z,65.70
2023-05-29T21:27:37.431Z,65.70
2023-05-29T21:30:08.815Z,66.20
2023-05-29T21:32:35.956Z,66.00
2023-05-29T21:35:05.688Z,66.10
2023-05-29T21:37:33.098Z,66.30
2023-05-29T21:40:02.200Z,66.90
2023-05-29T21:42:31.380Z,66.90
2023-05-29T21:45:01.214Z,67.40
2023-05-29T21:47:30.418Z,68.00
2023-05-29T21:49:59.521Z,68.30
2023-05-29T21:52:26.481Z,69.40
2023-05-29T21:54:53.447Z,69.10
2023-05-29T21:57:20.451Z,69.20
2023-05-29T21:59:49.882Z,69.90
2023-05-29T22:02:17.034Z,69.60
2023-05-29T22:04:46.968Z,69.80
2023-05-29T22:07:16.109Z,69.60
2023-05-29T22:09:45.288Z,70.00
2023-05-29T22:12:12.229Z,69.60
2023-05-29T22:14:41.774Z,70.10
2023-05-29T22:17:10.628Z,70.50
2023-05-29T22:19:39.317Z,70.20
2023-05-29T22:22:06.296Z,70.40
2023-05-29T22:24:33.258Z,70.70
2023-05-29T22:27:03.975Z,70.70
2023-05-29T22:29:31.924Z,70.80
2023-05-29T22:32:01.369Z,71.00
2023-05-29T22:34:28.388Z,70.70
2023-05-29T22:36:58.435Z,71.00
2023-05-29T22:39:25.560Z,71.70
2023-05-29T22:41:57.878Z,71.50
2023-05-29T22:44:27.453Z,71.70
2023-05-29T22:46:56.679Z,71.90
2023-05-29T22:49:26.694Z,72.00
2023-05-29T22:51:57.632Z,71.80
2023-05-29T22:54:27.376Z,71.80
2023-05-29T22:56:56.820Z,71.70
2023-05-29T22:59:24.241Z,71.70
2023-05-29T23:01:53.960Z,71.80
2023-05-29T23:04:23.711Z,71.80
2023-05-29T23:06:50.731Z,71.50
2023-05-29T23:09:18.205Z,71.60
2023-05-29T23:11:45.219Z,71.70
2023-05-29T23:14:16.622Z,71.20
2023-05-29T23:16:43.703Z,71.80
2023-05-29T23:19:13.140Z,71.70
2023-05-29T23:21:40.075Z,71.90
2023-05-29T23:24:09.571Z,72.20
2023-05-29T23:26:38.600Z,72.60
2023-05-29T23:29:08.561Z,72.70
2023-05-29T23:31:36.785Z,72.80
2023-05-29T23:34:04.957Z,72.80
2023-05-29T23:36:40.159Z,72.90
2023-05-29T23:39:07.120Z,73.40
2023-05-29T23:41:34.161Z,73.20
2023-05-29T23:44:04.604Z,73.30
2023-05-29T23:46:31.624Z,73.40
2023-05-29T23:48:58.620Z,74.00
2023-05-29T23:51:25.573Z,74.00
2023-05-29T23:53:52.623Z,74.20
2023-05-29T23:56:22.808Z,74.20
2023-05-29T23:58:54.676Z,74.00
